sensor_id;sensor_type;location;lat;lon;timestamp;P1;durP1;ratioP1;P2;durP2;ratioP2
39782;SDS011;25462;51.164;17.100;2023-03-03T00:05:43;291.90;;;44.50;;
39782;SDS011;25462;51.164;17.100;2023-03-03T00:10:48;298.50;;;47.90;;
39782;SDS011;25462;51.164;17.100;2023-03-03T00:15:53;196.60;;;43.30;;
39782;SDS011;25462;51.164;17.100;2023-03-03T00:20:58;152.80;;;36.30;;
39782;SDS011;25462;51.164;17.100;2023-03-03T00:26:14;205.10;;;45.20;;
39782;SDS011;25462;51.164;17.100;2023-03-03T00:31:27;145.60;;;34.60;;
39782;SDS011;25462;51.164;17.100;2023-03-03T00:36:36;161.90;;;40.30;;
39782;SDS011;25462;51.164;17.100;2023-03-03T00:41:41;108.30;;;33.40;;
39782;SDS011;25462;51.164;17.100;2023-03-03T00:46:44;94.70;;;32.40;;
39782;SDS011;25462;51.164;17.100;2023-03-03T00:51:49;122.00;;;36.70;;
39782;SDS011;25462;51.164;17.100;2023-03-03T00:56:54;82.00;;;33.70;;
39782;SDS011;25462;51.164;17.100;2023-03-03T01:01:58;112.40;;;35.50;;
39782;SDS011;25462;51.164;17.100;2023-03-03T01:07:02;113.10;;;36.80;;
39782;SDS011;25462;51.164;17.100;2023-03-03T01:12:06;106.40;;;31.70;;
39782;SDS011;25462;51.164;17.100;2023-03-03T01:17:12;132.10;;;39.30;;
39782;SDS011;25462;51.164;17.100;2023-03-03T01:22:16;125.80;;;40.70;;
39782;SDS011;25462;51.164;17.100;2023-03-03T01:27:19;118.50;;;41.50;;
39782;SDS011;25462;51.164;17.100;2023-03-03T01:32:24;133.90;;;38.90;;
39782;SDS011;25462;51.164;17.100;2023-03-03T01:37:29;137.20;;;40.80;;
39782;SDS011;25462;51.164;17.100;2023-03-03T01:42:35;112.80;;;36.70;;
39782;SDS011;25462;51.164;17.100;2023-03-03T01:47:39;170.90;;;39.50;;
39782;SDS011;25462;51.164;17.100;2023-03-03T01:52:48;180.70;;;41.80;;
39782;SDS011;25462;51.164;17.100;2023-03-03T01:57:58;164.50;;;40.40;;
39782;SDS011;25462;51.164;17.100;2023-03-03T02:03:31;124.30;;;35.90;;
39782;SDS011;25462;51.164;17.100;2023-03-03T02:08:38;105.90;;;33.50;;
39782;SDS011;25462;51.164;17.100;2023-03-03T02:13:47;104.40;;;33.50;;
39782;SDS011;25462;51.164;17.100;2023-03-03T02:18:52;91.70;;;31.90;;
39782;SDS011;25462;51.164;17.100;2023-03-03T02:29:31;113.80;;;37.20;;
39782;SDS011;25462;51.164;17.100;2023-03-03T02:34:48;60.10;;;24.30;;
39782;SDS011;25462;51.164;17.100;2023-03-03T02:39:55;110.20;;;36.90;;
39782;SDS011;25462;51.164;17.100;2023-03-03T02:44:59;78.80;;;35.30;;
39782;SDS011;25462;51.164;17.100;2023-03-03T02:50:04;132.90;;;40.00;;
39782;SDS011;25462;51.164;17.100;2023-03-03T02:55:09;119.80;;;38.70;;
39782;SDS011;25462;51.164;17.100;2023-03-03T03:00:15;116.70;;;35.50;;
39782;SDS011;25462;51.164;17.100;2023-03-03T03:05:19;131.60;;;37.80;;
39782;SDS011;25462;51.164;17.100;2023-03-03T03:10:23;82.90;;;33.00;;
39782;SDS011;25462;51.164;17.100;2023-03-03T03:15:28;123.00;;;37.10;;
39782;SDS011;25462;51.164;17.100;2023-03-03T03:20:35;109.20;;;37.70;;
39782;SDS011;25462;51.164;17.100;2023-03-03T03:25:45;108.00;;;37.50;;
39782;SDS011;25462;51.164;17.100;2023-03-03T03:30:55;108.80;;;37.60;;
39782;SDS011;25462;51.164;17.100;2023-03-03T03:35:59;96.60;;;31.80;;
39782;SDS011;25462;51.164;17.100;2023-03-03T03:41:06;123.80;;;40.40;;
39782;SDS011;25462;51.164;17.100;2023-03-03T03:46:10;105.10;;;38.30;;
39782;SDS011;25462;51.164;17.100;2023-03-03T03:51:16;92.20;;;34.00;;
39782;SDS011;25462;51.164;17.100;2023-03-03T03:56:20;78.20;;;29.60;;
39782;SDS011;25462;51.164;17.100;2023-03-03T04:01:26;104.80;;;36.30;;
39782;SDS011;25462;51.164;17.100;2023-03-03T04:06:34;78.90;;;31.60;;
39782;SDS011;25462;51.164;17.100;2023-03-03T04:11:39;67.30;;;27.70;;
39782;SDS011;25462;51.164;17.100;2023-03-03T04:16:45;66.70;;;25.60;;
39782;SDS011;25462;51.164;17.100;2023-03-03T04:21:49;47.50;;;20.40;;
39782;SDS011;25462;51.164;17.100;2023-03-03T04:26:54;64.20;;;25.40;;
39782;SDS011;25462;51.164;17.100;2023-03-03T04:31:58;74.00;;;27.50;;
39782;SDS011;25462;51.164;17.100;2023-03-03T04:37:03;59.10;;;23.60;;
39782;SDS011;25462;51.164;17.100;2023-03-03T04:42:07;48.50;;;20.30;;
39782;SDS011;25462;51.164;17.100;2023-03-03T04:47:11;54.80;;;20.70;;
39782;SDS011;25462;51.164;17.100;2023-03-03T04:52:16;56.40;;;19.90;;
39782;SDS011;25462;51.164;17.100;2023-03-03T04:57:21;50.30;;;19.10;;
39782;SDS011;25462;51.164;17.100;2023-03-03T05:02:28;44.70;;;17.80;;
39782;SDS011;25462;51.164;17.100;2023-03-03T05:07:35;52.00;;;18.30;;
39782;SDS011;25462;51.164;17.100;2023-03-03T05:12:39;54.40;;;19.40;;
39782;SDS011;25462;51.164;17.100;2023-03-03T05:17:45;49.20;;;18.40;;
39782;SDS011;25462;51.164;17.100;2023-03-03T05:22:50;50.40;;;18.30;;
39782;SDS011;25462;51.164;17.100;2023-03-03T05:27:55;56.40;;;20.70;;
39782;SDS011;25462;51.164;17.100;2023-03-03T05:32:58;51.50;;;20.80;;
39782;SDS011;25462;51.164;17.100;2023-03-03T05:38:02;61.00;;;21.90;;
39782;SDS011;25462;51.164;17.100;2023-03-03T05:43:07;64.90;;;22.30;;
39782;SDS011;25462;51.164;17.100;2023-03-03T05:48:11;51.70;;;18.70;;
39782;SDS011;25462;51.164;17.100;2023-03-03T05:53:15;45.90;;;17.90;;
39782;SDS011;25462;51.164;17.100;2023-03-03T05:58:18;43.10;;;16.60;;
39782;SDS011;25462;51.164;17.100;2023-03-03T06:03:22;41.80;;;16.40;;
39782;SDS011;25462;51.164;17.100;2023-03-03T06:08:26;39.40;;;15.80;;
39782;SDS011;25462;51.164;17.100;2023-03-03T06:13:31;33.10;;;12.40;;
39782;SDS011;25462;51.164;17.100;2023-03-03T06:18:35;42.50;;;14.00;;
39782;SDS011;25462;51.164;17.100;2023-03-03T06:23:40;34.50;;;14.50;;
39782;SDS011;25462;51.164;17.100;2023-03-03T06:28:44;39.00;;;16.50;;
39782;SDS011;25462;51.164;17.100;2023-03-03T06:33:47;36.90;;;14.50;;
39782;SDS011;25462;51.164;17.100;2023-03-03T06:38:51;36.30;;;13.90;;
39782;SDS011;25462;51.164;17.100;2023-03-03T06:43:55;51.10;;;16.90;;
39782;SDS011;25462;51.164;17.100;2023-03-03T06:49:00;41.70;;;15.30;;
39782;SDS011;25462;51.164;17.100;2023-03-03T06:54:11;31.40;;;13.00;;
39782;SDS011;25462;51.164;17.100;2023-03-03T06:59:20;32.20;;;13.10;;
39782;SDS011;25462;51.164;17.100;2023-03-03T07:04:28;28.60;;;10.50;;
39782;SDS011;25462;51.164;17.100;2023-03-03T07:09:33;37.70;;;15.90;;
39782;SDS011;25462;51.164;17.100;2023-03-03T07:14:44;37.10;;;14.40;;
39782;SDS011;25462;51.164;17.100;2023-03-03T07:19:50;40.90;;;15.60;;
39782;SDS011;25462;51.164;17.100;2023-03-03T07:24:56;48.30;;;18.90;;
39782;SDS011;25462;51.164;17.100;2023-03-03T07:30:15;47.10;;;17.00;;
39782;SDS011;25462;51.164;17.100;2023-03-03T07:40:48;36.70;;;14.10;;
39782;SDS011;25462;51.164;17.100;2023-03-03T07:56:44;41.00;;;16.10;;
39782;SDS011;25462;51.164;17.100;2023-03-03T08:01:51;33.50;;;15.20;;
39782;SDS011;25462;51.164;17.100;2023-03-03T08:06:59;36.70;;;15.80;;
39782;SDS011;25462;51.164;17.100;2023-03-03T08:17:34;28.30;;;12.00;;
39782;SDS011;25462;51.164;17.100;2023-03-03T08:22:39;34.00;;;14.40;;
39782;SDS011;25462;51.164;17.100;2023-03-03T08:27:43;31.00;;;15.20;;
39782;SDS011;25462;51.164;17.100;2023-03-03T08:32:47;40.00;;;17.50;;
39782;SDS011;25462;51.164;17.100;2023-03-03T08:37:51;42.90;;;19.60;;
39782;SDS011;25462;51.164;17.100;2023-03-03T08:42:56;41.50;;;19.90;;
39782;SDS011;25462;51.164;17.100;2023-03-03T08:48:00;45.80;;;20.60;;
39782;SDS011;25462;51.164;17.100;2023-03-03T08:53:08;45.40;;;19.40;;
39782;SDS011;25462;51.164;17.100;2023-03-03T08:58:14;43.10;;;19.30;;
39782;SDS011;25462;51.164;17.100;2023-03-03T09:03:19;48.50;;;21.20;;
39782;SDS011;25462;51.164;17.100;2023-03-03T09:08:23;46.00;;;19.80;;
39782;SDS011;25462;51.164;17.100;2023-03-03T09:13:29;51.50;;;22.10;;
39782;SDS011;25462;51.164;17.100;2023-03-03T09:18:34;47.40;;;19.90;;
39782;SDS011;25462;51.164;17.100;2023-03-03T09:23:46;53.00;;;21.80;;
39782;SDS011;25462;51.164;17.100;2023-03-03T09:39:51;53.30;;;23.20;;
39782;SDS011;25462;51.164;17.100;2023-03-03T10:12:19;39.60;;;18.00;;
39782;SDS011;25462;51.164;17.100;2023-03-03T10:17:28;43.20;;;21.00;;
39782;SDS011;25462;51.164;17.100;2023-03-03T10:28:27;40.10;;;18.50;;
39782;SDS011;25462;51.164;17.100;2023-03-03T10:44:45;39.40;;;19.60;;
39782;SDS011;25462;51.164;17.100;2023-03-03T11:00:49;49.90;;;22.80;;
39782;SDS011;25462;51.164;17.100;2023-03-03T11:06:01;47.10;;;21.10;;
39782;SDS011;25462;51.164;17.100;2023-03-03T11:17:04;42.90;;;20.40;;
39782;SDS011;25462;51.164;17.100;2023-03-03T11:22:30;40.60;;;18.40;;
39782;SDS011;25462;51.164;17.100;2023-03-03T11:33:09;35.10;;;16.90;;
39782;SDS011;25462;51.164;17.100;2023-03-03T11:43:42;36.20;;;16.90;;
39782;SDS011;25462;51.164;17.100;2023-03-03T11:49:04;30.00;;;14.80;;
39782;SDS011;25462;51.164;17.100;2023-03-03T11:55:19;30.60;;;16.40;;
39782;SDS011;25462;51.164;17.100;2023-03-03T12:06:01;30.40;;;16.10;;
39782;SDS011;25462;51.164;17.100;2023-03-03T12:11:44;30.00;;;13.80;;
39782;SDS011;25462;51.164;17.100;2023-03-03T12:16:55;26.10;;;14.90;;
39782;SDS011;25462;51.164;17.100;2023-03-03T12:33:10;26.60;;;13.20;;
39782;SDS011;25462;51.164;17.100;2023-03-03T13:06:32;25.20;;;11.80;;
39782;SDS011;25462;51.164;17.100;2023-03-03T13:12:06;24.50;;;11.90;;
39782;SDS011;25462;51.164;17.100;2023-03-03T13:17:29;25.10;;;12.10;;
39782;SDS011;25462;51.164;17.100;2023-03-03T13:22:40;25.70;;;13.30;;
39782;SDS011;25462;51.164;17.100;2023-03-03T13:28:06;28.60;;;12.80;;
39782;SDS011;25462;51.164;17.100;2023-03-03T13:33:33;25.60;;;11.30;;
39782;SDS011;25462;51.164;17.100;2023-03-03T13:38:44;24.10;;;13.20;;
39782;SDS011;25462;51.164;17.100;2023-03-03T13:44:04;26.50;;;13.70;;
39782;SDS011;25462;51.164;17.100;2023-03-03T14:00:04;28.70;;;13.70;;
39782;SDS011;25462;51.164;17.100;2023-03-03T14:05:51;25.20;;;12.30;;
39782;SDS011;25462;51.164;17.100;2023-03-03T14:11:01;28.40;;;14.70;;
39782;SDS011;25462;51.164;17.100;2023-03-03T14:16:42;31.80;;;16.10;;
39782;SDS011;25462;51.164;17.100;2023-03-03T14:22:05;25.70;;;13.20;;
39782;SDS011;25462;51.164;17.100;2023-03-03T14:27:24;25.80;;;12.00;;
39782;SDS011;25462;51.164;17.100;2023-03-03T14:32:30;25.10;;;13.10;;
39782;SDS011;25462;51.164;17.100;2023-03-03T14:37:48;23.60;;;11.70;;
39782;SDS011;25462;51.164;17.100;2023-03-03T14:42:54;24.40;;;11.70;;
39782;SDS011;25462;51.164;17.100;2023-03-03T14:47:59;25.70;;;13.40;;
39782;SDS011;25462;51.164;17.100;2023-03-03T14:53:20;27.20;;;14.80;;
39782;SDS011;25462;51.164;17.100;2023-03-03T14:58:30;22.60;;;12.30;;
39782;SDS011;25462;51.164;17.100;2023-03-03T15:03:58;24.30;;;12.50;;
39782;SDS011;25462;51.164;17.100;2023-03-03T15:14:42;23.10;;;12.20;;
39782;SDS011;25462;51.164;17.100;2023-03-03T15:25:08;20.70;;;11.40;;
39782;SDS011;25462;51.164;17.100;2023-03-03T15:30:29;25.30;;;13.50;;
39782;SDS011;25462;51.164;17.100;2023-03-03T15:35:51;24.60;;;14.70;;
39782;SDS011;25462;51.164;17.100;2023-03-03T15:46:19;22.60;;;12.10;;
39782;SDS011;25462;51.164;17.100;2023-03-03T15:56:48;24.70;;;14.10;;
39782;SDS011;25462;51.164;17.100;2023-03-03T16:02:15;26.60;;;16.00;;
39782;SDS011;25462;51.164;17.100;2023-03-03T16:07:32;30.70;;;16.90;;
39782;SDS011;25462;51.164;17.100;2023-03-03T16:18:46;32.70;;;18.30;;
39782;SDS011;25462;51.164;17.100;2023-03-03T16:24:23;32.90;;;19.30;;
39782;SDS011;25462;51.164;17.100;2023-03-03T16:30:33;32.90;;;18.90;;
39782;SDS011;25462;51.164;17.100;2023-03-03T16:35:53;33.70;;;18.80;;
39782;SDS011;25462;51.164;17.100;2023-03-03T16:41:31;33.20;;;18.20;;
39782;SDS011;25462;51.164;17.100;2023-03-03T16:47:00;33.70;;;17.30;;
39782;SDS011;25462;51.164;17.100;2023-03-03T16:52:46;37.10;;;18.80;;
39782;SDS011;25462;51.164;17.100;2023-03-03T16:57:56;34.10;;;17.70;;
39782;SDS011;25462;51.164;17.100;2023-03-03T17:03:13;38.80;;;18.50;;
39782;SDS011;25462;51.164;17.100;2023-03-03T17:09:16;31.20;;;17.30;;
39782;SDS011;25462;51.164;17.100;2023-03-03T17:42:22;26.90;;;13.40;;
39782;SDS011;25462;51.164;17.100;2023-03-03T18:14:44;24.70;;;12.90;;
39782;SDS011;25462;51.164;17.100;2023-03-03T18:25:57;28.20;;;14.60;;
39782;SDS011;25462;51.164;17.100;2023-03-03T18:31:23;31.30;;;15.40;;
39782;SDS011;25462;51.164;17.100;2023-03-03T18:53:29;35.40;;;16.20;;
39782;SDS011;25462;51.164;17.100;2023-03-03T18:58:38;42.10;;;19.10;;
39782;SDS011;25462;51.164;17.100;2023-03-03T19:08:52;40.50;;;18.50;;
39782;SDS011;25462;51.164;17.100;2023-03-03T19:19:30;42.40;;;18.90;;
39782;SDS011;25462;51.164;17.100;2023-03-03T19:24:38;40.80;;;17.80;;
39782;SDS011;25462;51.164;17.100;2023-03-03T20:23:53;40.00;;;19.50;;
39782;SDS011;25462;51.164;17.100;2023-03-03T20:29:15;36.80;;;18.70;;
39782;SDS011;25462;51.164;17.100;2023-03-03T20:40:19;31.10;;;17.50;;
39782;SDS011;25462;51.164;17.100;2023-03-03T20:56:12;32.90;;;17.20;;
39782;SDS011;25462;51.164;17.100;2023-03-03T21:06:40;39.20;;;19.30;;
39782;SDS011;25462;51.164;17.100;2023-03-03T21:11:46;36.90;;;18.60;;
39782;SDS011;25462;51.164;17.100;2023-03-03T21:16:57;34.50;;;17.40;;
39782;SDS011;25462;51.164;17.100;2023-03-03T21:22:10;39.90;;;19.70;;
39782;SDS011;25462;51.164;17.100;2023-03-03T21:32:43;40.90;;;22.10;;
39782;SDS011;25462;51.164;17.100;2023-03-03T21:37:51;37.80;;;20.50;;
39782;SDS011;25462;51.164;17.100;2023-03-03T21:42:57;34.80;;;17.40;;
39782;SDS011;25462;51.164;17.100;2023-03-03T21:48:03;36.10;;;17.40;;
39782;SDS011;25462;51.164;17.100;2023-03-03T21:53:09;46.70;;;22.20;;
39782;SDS011;25462;51.164;17.100;2023-03-03T21:58:14;42.60;;;22.00;;
39782;SDS011;25462;51.164;17.100;2023-03-03T22:03:18;50.60;;;23.30;;
39782;SDS011;25462;51.164;17.100;2023-03-03T22:08:23;48.70;;;22.70;;
39782;SDS011;25462;51.164;17.100;2023-03-03T22:13:28;48.00;;;22.90;;
39782;SDS011;25462;51.164;17.100;2023-03-03T22:18:31;59.20;;;26.60;;
39782;SDS011;25462;51.164;17.100;2023-03-03T22:23:36;62.40;;;27.60;;
39782;SDS011;25462;51.164;17.100;2023-03-03T22:28:40;54.80;;;25.60;;
39782;SDS011;25462;51.164;17.100;2023-03-03T22:33:46;66.70;;;28.10;;
39782;SDS011;25462;51.164;17.100;2023-03-03T22:38:51;63.20;;;28.40;;
39782;SDS011;25462;51.164;17.100;2023-03-03T22:43:55;66.20;;;25.40;;
39782;SDS011;25462;51.164;17.100;2023-03-03T22:48:59;61.90;;;25.70;;
39782;SDS011;25462;51.164;17.100;2023-03-03T22:54:03;57.70;;;24.70;;
39782;SDS011;25462;51.164;17.100;2023-03-03T22:59:08;58.30;;;26.20;;
39782;SDS011;25462;51.164;17.100;2023-03-03T23:04:12;68.10;;;28.60;;
39782;SDS011;25462;51.164;17.100;2023-03-03T23:09:16;64.20;;;25.60;;
39782;SDS011;25462;51.164;17.100;2023-03-03T23:14:20;66.30;;;27.30;;
39782;SDS011;25462;51.164;17.100;2023-03-03T23:19:26;62.40;;;25.40;;
39782;SDS011;25462;51.164;17.100;2023-03-03T23:24:30;67.20;;;27.80;;
39782;SDS011;25462;51.164;17.100;2023-03-03T23:29:35;70.20;;;27.40;;
39782;SDS011;25462;51.164;17.100;2023-03-03T23:34:40;62.20;;;26.00;;
39782;SDS011;25462;51.164;17.100;2023-03-03T23:39:44;62.10;;;28.00;;
39782;SDS011;25462;51.164;17.100;2023-03-03T23:44:49;62.60;;;25.70;;
39782;SDS011;25462;51.164;17.100;2023-03-03T23:49:54;69.50;;;28.80;;
39782;SDS011;25462;51.164;17.100;2023-03-03T23:54:58;58.30;;;24.20;;
